Irvington, Iowa
Current Conditions -  °F | °C
As of 10:55 AM on Saturday 22 Nov 2014 (Local Time) from KAXA Reporting Station
Moderate Fog Moderate Fog  
Wind Chill: 28°   Ceiling: 200
Heat Index: 36°   Visibility: 0.5mi
Dew Point: 36°   Wind: 12mph
Humidity: 100%   Direction: 210°SSW
Pressure: 29.77"   Gusts: NA
Location:  42.991°N, 94.0912°W
Report Text: KAXA 221655Z AUTO 21010KT 1/2SM FG OVC002 02/02 A2977 RMK AO2
Loading
Personal Weather Stations






























Interactive Weather Map New forecast layout! Learn more

10-Day Weather Forecast

Advertisements
Track Severe Weather on mobile